Time;durP1;ratioP1;P1;durP2;ratioP2;P2;SDS_P1;SDS_P2;PMS_P1;PMS_P2;Temp;Humidity;BMP_temperature;BMP_pressure;BME280_temperature;BME280_humidity;BME280_pressure;Samples;Min_cycle;Max_cycle;Signal;HPM_P1;HPM_P2
2023/10/31 00:01:39;;;;;;;18.83;4.07;;;24.80;81.10;;;;;;5112727;28;20616;-72
2023/10/31 00:04:46;;;;;;;29.23;4.18;;;24.80;81.70;;;;;;5112559;28;20043;-70
2023/10/31 00:07:50;;;;;;;28.23;4.57;;;25.00;81.60;;;;;;5111566;28;20050;-70
2023/10/31 00:10:54;;;;;;;28.50;4.80;;;25.00;82.00;;;;;;5112776;28;20494;-72
2023/10/31 00:13:58;;;;;;;24.58;4.55;;;25.00;81.90;;;;;;5112629;28;20042;-71
2023/10/31 00:17:02;;;;;;;23.90;4.15;;;24.90;82.70;;;;;;5112176;28;20047;-70
2023/10/31 00:20:06;;;;;;;26.30;4.28;;;24.90;83.20;;;;;;5112211;28;20046;-72
2023/10/31 00:23:11;;;;;;;41.03;5.30;;;24.90;84.20;;;;;;5111436;28;20039;-72
2023/10/31 00:26:15;;;;;;;29.38;3.90;;;24.80;84.60;;;;;;5111918;28;20055;-71
2023/10/31 00:29:26;;;;;;;36.10;4.47;;;24.80;85.00;;;;;;5111854;28;20046;-71
2023/10/31 00:32:30;;;;;;;35.10;4.47;;;24.80;85.30;;;;;;5111433;28;20055;-72
2023/10/31 00:35:37;;;;;;;32.75;4.75;;;24.80;85.80;;;;;;5110417;28;20043;-71
2023/10/31 00:38:41;;;;;;;33.30;4.72;;;24.80;86.10;;;;;;5111427;28;20042;-71
2023/10/31 00:41:46;;;;;;;33.70;4.68;;;24.80;86.70;;;;;;5112142;28;20042;-71
2023/10/31 00:44:50;;;;;;;26.08;4.43;;;24.80;86.90;;;;;;5111105;28;20070;-71
2023/10/31 00:47:54;;;;;;;28.42;4.22;;;25.30;86.70;;;;;;5111130;28;20387;-72
2023/10/31 00:50:58;;;;;;;37.03;4.65;;;24.80;87.00;;;;;;5111182;28;20050;-70
2023/10/31 00:54:02;;;;;;;28.08;4.57;;;24.80;87.30;;;;;;5111854;28;20038;-72
2023/10/31 00:57:06;;;;;;;30.85;5.55;;;24.80;87.90;;;;;;5111886;28;20113;-70
2023/10/31 01:00:11;;;;;;;33.90;5.07;;;24.70;88.10;;;;;;5111828;28;20050;-72
2023/10/31 01:03:16;;;;;;;31.23;5.18;;;24.70;88.80;;;;;;5111026;28;20074;-71
2023/10/31 01:06:20;;;;;;;39.28;5.30;;;24.70;89.40;;;;;;5111688;28;20415;-72
2023/10/31 01:09:24;;;;;;;36.78;5.40;;;24.70;90.10;;;;;;5110933;28;20042;-72
2023/10/31 01:12:28;;;;;;;30.02;4.53;;;24.70;90.30;;;;;;5111727;28;20046;-72
2023/10/31 01:15:32;;;;;;;28.33;5.40;;;24.70;90.60;;;;;;5112003;28;20046;-72
2023/10/31 01:18:36;;;;;;;31.45;5.55;;;24.80;90.70;;;;;;5110831;28;20050;-72
2023/10/31 01:21:40;;;;;;;31.73;4.95;;;24.60;90.70;;;;;;5111348;28;20039;-71
2023/10/31 01:24:44;;;;;;;37.45;6.63;;;24.60;90.80;;;;;;5111745;28;20407;-72
2023/10/31 01:27:48;;;;;;;33.60;5.32;;;24.60;91.30;;;;;;5110685;28;20039;-71
2023/10/31 01:30:52;;;;;;;39.47;6.47;;;24.60;91.60;;;;;;5110426;28;20058;-72
2023/10/31 01:33:56;;;;;;;38.78;5.07;;;24.60;91.90;;;;;;5110778;28;20502;-72
2023/10/31 01:37:00;;;;;;;43.53;5.80;;;24.60;92.30;;;;;;5111337;28;20066;-71
2023/10/31 01:40:07;;;;;;;39.15;6.15;;;24.50;92.60;;;;;;5110537;28;20055;-72
2023/10/31 01:43:11;;;;;;;49.60;6.40;;;24.50;92.90;;;;;;5111232;28;20047;-72
2023/10/31 01:46:15;;;;;;;39.97;6.65;;;24.40;93.30;;;;;;5112033;28;20094;-72
2023/10/31 01:49:19;;;;;;;43.15;7.43;;;24.40;93.60;;;;;;5114633;28;20043;-71
2023/10/31 01:52:23;;;;;;;34.67;5.90;;;24.40;94.00;;;;;;5114918;28;20050;-71
2023/10/31 01:55:29;;;;;;;35.08;6.85;;;24.30;94.20;;;;;;5114258;28;20039;-71
2023/10/31 01:58:36;;;;;;;43.80;7.32;;;24.40;94.50;;;;;;5115042;28;20042;-71
2023/10/31 02:01:40;;;;;;;34.47;6.13;;;24.30;94.90;;;;;;5115378;28;20053;-72
2023/10/31 02:04:45;;;;;;;45.63;6.95;;;24.20;95.30;;;;;;5114755;28;20059;-70
2023/10/31 02:07:49;;;;;;;43.15;6.70;;;24.20;95.60;;;;;;5114205;28;20031;-72
2023/10/31 02:10:53;;;;;;;53.15;7.90;;;24.20;95.80;;;;;;5114843;28;20042;-71
2023/10/31 02:13:57;;;;;;;62.05;9.82;;;24.10;96.10;;;;;;5114150;28;20042;-71
2023/10/31 02:17:00;;;;;;;47.00;8.00;;;24.10;96.50;;;;;;5114078;28;20055;-71
2023/10/31 02:20:05;;;;;;;48.08;8.02;;;24.00;96.50;;;;;;5114211;28;20064;-72
2023/10/31 02:23:10;;;;;;;43.88;6.95;;;24.10;96.80;;;;;;5114390;28;20039;-71
2023/10/31 02:26:14;;;;;;;36.42;7.22;;;24.00;97.00;;;;;;5114339;28;20053;-72
2023/10/31 02:29:18;;;;;;;45.03;8.80;;;24.00;97.20;;;;;;5113682;28;20502;-71
2023/10/31 02:32:21;;;;;;;44.22;7.20;;;23.90;97.30;;;;;;5114560;28;20055;-72
2023/10/31 02:35:26;;;;;;;50.40;7.18;;;24.00;97.90;;;;;;5113748;28;20222;-72
2023/10/31 02:38:30;;;;;;;54.33;8.30;;;23.90;98.10;;;;;;5114428;28;20507;-72
2023/10/31 02:41:34;;;;;;;42.97;8.07;;;23.90;98.40;;;;;;5114330;28;20042;-72
2023/10/31 02:44:37;;;;;;;51.22;7.93;;;23.90;98.60;;;;;;5113512;28;20039;-71
2023/10/31 02:47:41;;;;;;;42.38;7.75;;;23.90;98.90;;;;;;5114451;28;20047;-71
2023/10/31 02:50:45;;;;;;;42.20;8.75;;;23.90;99.10;;;;;;5113232;28;20035;-71
2023/10/31 02:53:52;;;;;;;53.42;8.50;;;23.90;99.20;;;;;;5113282;28;20047;-71
2023/10/31 02:57:00;;;;;;;52.90;10.38;;;23.80;99.60;;;;;;5112939;28;20046;-71
2023/10/31 03:00:05;;;;;;;42.17;7.45;;;23.80;99.90;;;;;;5114175;28;20418;-71
2023/10/31 03:03:09;;;;;;;51.88;8.38;;;23.70;99.90;;;;;;5112979;28;20518;-70
2023/10/31 03:06:13;;;;;;;52.60;9.38;;;23.80;99.90;;;;;;5113670;28;20050;-72
2023/10/31 03:09:17;;;;;;;55.97;8.65;;;23.80;99.90;;;;;;5113753;28;20246;-71
2023/10/31 03:12:21;;;;;;;56.95;9.70;;;23.80;99.90;;;;;;5113727;28;20043;-71
2023/10/31 03:15:25;;;;;;;69.47;10.82;;;23.70;99.90;;;;;;5113608;28;20058;-72
2023/10/31 03:18:29;;;;;;;48.67;8.90;;;23.70;99.90;;;;;;5113861;28;20046;-72
2023/10/31 03:21:33;;;;;;;71.00;11.05;;;23.70;99.90;;;;;;5113306;28;20042;-72
2023/10/31 03:24:37;;;;;;;76.20;11.40;;;23.70;99.90;;;;;;5112805;28;20604;-71
2023/10/31 03:27:41;;;;;;;71.57;10.65;;;23.70;99.90;;;;;;5112923;28;20047;-72
2023/10/31 03:30:49;;;;;;;78.13;11.57;;;23.70;99.90;;;;;;5113006;28;20067;-71
2023/10/31 03:33:53;;;;;;;78.72;12.35;;;23.60;99.90;;;;;;5112756;28;20415;-71
2023/10/31 03:36:58;;;;;;;85.38;13.20;;;23.60;99.90;;;;;;5112205;28;20495;-72
2023/10/31 03:40:03;;;;;;;60.72;11.15;;;23.60;99.90;;;;;;5112558;28;20047;-72
2023/10/31 03:43:07;;;;;;;80.13;12.77;;;23.50;99.90;;;;;;5113068;28;20042;-72
2023/10/31 03:46:11;;;;;;;85.57;13.52;;;23.50;99.90;;;;;;5111985;28;20062;-71
2023/10/31 03:49:16;;;;;;;92.53;13.88;;;23.50;99.90;;;;;;5112980;28;20043;-72
2023/10/31 03:52:19;;;;;;;91.90;13.20;;;23.50;99.90;;;;;;5113021;28;20074;-71
2023/10/31 03:55:23;;;;;;;77.18;11.90;;;23.50;99.90;;;;;;5112952;28;20058;-71
2023/10/31 03:58:27;;;;;;;74.10;11.88;;;23.50;99.90;;;;;;5113056;28;20054;-71
2023/10/31 04:01:31;;;;;;;83.55;12.38;;;23.40;99.90;;;;;;5111800;28;20043;-71
2023/10/31 04:04:35;;;;;;;77.30;11.55;;;23.40;99.90;;;;;;5111888;28;20051;-72
2023/10/31 04:07:40;;;;;;;77.90;12.80;;;23.40;99.90;;;;;;5112065;28;20055;-71
2023/10/31 04:10:44;;;;;;;66.25;12.13;;;23.40;99.90;;;;;;5111619;28;20089;-72
2023/10/31 04:13:48;;;;;;;75.82;13.25;;;23.30;99.90;;;;;;5111762;28;20046;-72
2023/10/31 04:16:52;;;;;;;82.90;15.05;;;23.30;99.90;;;;;;5112572;28;20395;-71
2023/10/31 04:19:56;;;;;;;80.95;12.95;;;23.30;99.90;;;;;;5112220;28;20046;-71
2023/10/31 04:22:59;;;;;;;80.63;12.65;;;23.30;99.90;;;;;;5112090;28;20042;-72
2023/10/31 04:26:07;;;;;;;88.38;13.65;;;23.30;99.90;;;;;;5111496;28;20070;-72
2023/10/31 04:29:11;;;;;;;92.82;13.23;;;23.30;99.90;;;;;;5099569;28;20062;-71
2023/10/31 04:32:15;;;;;;;87.50;13.85;;;23.30;99.90;;;;;;5112337;28;20051;-72
2023/10/31 04:35:18;;;;;;;89.68;14.43;;;23.20;99.90;;;;;;5111420;28;20038;-71
2023/10/31 04:38:22;;;;;;;85.00;13.15;;;23.20;99.90;;;;;;5111924;28;20036;-73
2023/10/31 04:41:27;;;;;;;89.78;13.38;;;23.20;99.90;;;;;;5111915;28;20043;-72
2023/10/31 04:44:30;;;;;;;79.30;12.77;;;23.20;99.90;;;;;;5111243;28;20046;-72
2023/10/31 04:47:34;;;;;;;62.85;12.15;;;23.10;99.90;;;;;;5110945;28;20070;-72
2023/10/31 04:50:38;;;;;;;75.50;11.88;;;23.10;99.90;;;;;;5111356;28;20113;-72
2023/10/31 04:53:43;;;;;;;74.22;13.07;;;23.10;99.90;;;;;;5111903;28;20046;-72
2023/10/31 04:56:50;;;;;;;88.00;12.50;;;23.10;99.90;;;;;;5111808;28;20589;-72
2023/10/31 04:59:54;;;;;;;86.10;12.40;;;23.10;99.90;;;;;;5111028;28;20050;-73
2023/10/31 05:02:59;;;;;;;74.13;12.43;;;23.10;99.90;;;;;;5111493;28;20039;-71
2023/10/31 05:06:04;;;;;;;63.95;10.98;;;22.00;99.90;;;;;;5110760;28;20055;-71
2023/10/31 05:09:09;;;;;;;67.15;11.70;;;23.00;99.90;;;;;;5111674;28;20039;-72
2023/10/31 05:12:14;;;;;;;70.97;10.60;;;23.00;99.90;;;;;;5111415;28;20395;-70
2023/10/31 05:15:18;;;;;;;81.80;13.60;;;23.00;99.90;;;;;;5111729;28;20043;-71
2023/10/31 05:18:22;;;;;;;64.40;10.40;;;23.00;99.90;;;;;;5111444;28;20054;-71
2023/10/31 05:21:26;;;;;;;62.88;12.10;;;23.00;99.90;;;;;;5111165;28;20046;-71
2023/10/31 05:24:32;;;;;;;76.82;11.55;;;22.90;99.90;;;;;;5111441;28;20514;-72
2023/10/31 05:27:35;;;;;;;68.65;10.98;;;22.90;99.90;;;;;;5111640;28;20051;-71
2023/10/31 05:30:39;;;;;;;78.32;11.73;;;22.90;99.90;;;;;;5111141;28;20395;-72
2023/10/31 05:33:43;;;;;;;49.47;9.55;;;22.90;99.90;;;;;;5110591;28;20508;-73
2023/10/31 05:36:48;;;;;;;59.95;10.60;;;22.90;99.90;;;;;;5111563;28;20051;-73
2023/10/31 05:39:52;;;;;;;70.50;12.60;;;22.80;99.90;;;;;;5111284;28;20059;-72
2023/10/31 05:42:57;;;;;;;55.08;10.68;;;22.80;99.90;;;;;;5110371;28;20043;-72
2023/10/31 05:46:01;;;;;;;71.13;12.32;;;22.80;99.90;;;;;;5111083;28;20055;-71
2023/10/31 05:49:07;;;;;;;79.72;11.13;;;22.70;99.90;;;;;;5111062;28;20043;-71
2023/10/31 05:52:11;;;;;;;60.05;10.93;;;22.70;99.90;;;;;;5110354;28;20051;-72
2023/10/31 05:55:14;;;;;;;66.00;10.60;;;22.60;99.90;;;;;;5111545;28;20042;-72
2023/10/31 05:58:19;;;;;;;58.25;10.32;;;22.70;99.90;;;;;;5110838;28;20046;-72
2023/10/31 06:01:23;;;;;;;67.60;10.90;;;22.60;99.90;;;;;;5111287;28;20047;-71
2023/10/31 06:04:27;;;;;;;93.93;11.05;;;22.60;99.90;;;;;;5110991;28;20043;-73
2023/10/31 06:07:31;;;;;;;92.10;12.25;;;22.60;99.90;;;;;;5111142;28;20059;-71
2023/10/31 06:10:35;;;;;;;61.90;10.13;;;22.60;99.90;;;;;;5110960;28;20038;-71
2023/10/31 06:13:39;;;;;;;62.20;9.02;;;22.60;99.90;;;;;;5111327;28;20383;-72
2023/10/31 06:16:44;;;;;;;67.80;10.60;;;22.60;99.90;;;;;;5111030;28;20050;-73
2023/10/31 06:19:48;;;;;;;51.75;9.40;;;22.50;99.90;;;;;;5111106;28;20135;-71
2023/10/31 06:22:52;;;;;;;52.50;9.85;;;22.50;99.90;;;;;;5110689;28;20038;-71
2023/10/31 06:25:56;;;;;;;43.50;8.15;;;22.50;99.90;;;;;;5110574;28;20407;-73
2023/10/31 06:29:00;;;;;;;47.05;7.00;;;22.60;99.90;;;;;;5110712;28;20059;-75
2023/10/31 06:32:05;;;;;;;33.05;6.80;;;22.60;99.90;;;;;;5110592;28;20408;-74
2023/10/31 06:35:09;;;;;;;37.70;5.78;;;22.70;99.90;;;;;;5113318;28;20046;-72
2023/10/31 06:38:13;;;;;;;35.13;7.47;;;22.70;99.90;;;;;;5114993;28;20046;-75
2023/10/31 06:41:17;;;;;;;40.25;7.30;;;22.80;99.90;;;;;;5114421;28;20047;-73
2023/10/31 06:44:21;;;;;;;35.85;6.65;;;22.90;99.90;;;;;;5114361;28;20043;-74
2023/10/31 06:47:25;;;;;;;46.88;8.85;;;22.90;99.90;;;;;;5114601;28;20046;-73
2023/10/31 06:50:32;;;;;;;44.85;6.88;;;22.90;99.90;;;;;;5113392;28;20039;-72
2023/10/31 06:53:36;;;;;;;33.58;6.57;;;22.90;99.90;;;;;;5114426;28;20046;-72
2023/10/31 06:56:40;;;;;;;38.22;6.05;;;23.10;99.90;;;;;;5113903;28;20042;-73
2023/10/31 06:59:44;;;;;;;41.80;6.65;;;23.20;99.90;;;;;;5112810;28;20046;-72
2023/10/31 07:02:48;;;;;;;31.35;5.70;;;23.20;99.90;;;;;;5112598;28;20039;-72
2023/10/31 07:05:52;;;;;;;24.52;6.20;;;23.40;99.90;;;;;;5113909;28;20038;-74
2023/10/31 07:08:57;;;;;;;42.15;7.28;;;23.50;99.90;;;;;;5113289;28;20114;-72
2023/10/31 07:12:02;;;;;;;24.20;5.00;;;23.60;99.90;;;;;;5112542;28;20038;-70
2023/10/31 07:15:06;;;;;;;36.70;8.80;;;23.70;99.90;;;;;;5113549;28;20042;-71
2023/10/31 07:18:11;;;;;;;28.67;5.82;;;23.70;99.90;;;;;;5113510;28;20039;-70
2023/10/31 07:21:15;;;;;;;26.02;5.85;;;23.70;99.90;;;;;;5112263;28;20046;-71
2023/10/31 07:24:19;;;;;;;33.65;6.00;;;23.70;99.90;;;;;;5113494;28;20034;-72
2023/10/31 07:27:22;;;;;;;21.52;5.10;;;23.90;99.90;;;;;;5113212;28;20058;-72
2023/10/31 07:30:26;;;;;;;29.95;12.50;;;24.00;99.90;;;;;;5112816;28;20051;-72
2023/10/31 07:33:30;;;;;;;38.92;7.07;;;24.20;99.60;;;;;;5113431;28;20042;-71
2023/10/31 07:36:35;;;;;;;25.98;5.32;;;24.40;99.30;;;;;;5113306;28;20039;-71
2023/10/31 07:39:39;;;;;;;18.35;4.88;;;24.50;98.70;;;;;;5112981;28;20402;-72
2023/10/31 07:42:43;;;;;;;18.38;3.95;;;24.60;98.00;;;;;;5112923;28;20038;-70
2023/10/31 07:45:47;;;;;;;18.95;3.95;;;24.80;97.50;;;;;;5112467;28;20070;-71
2023/10/31 07:48:51;;;;;;;25.83;5.47;;;25.00;96.90;;;;;;5112677;28;20054;-72
2023/10/31 07:51:55;;;;;;;23.77;5.35;;;25.20;96.20;;;;;;5112790;28;20054;-71
2023/10/31 07:55:00;;;;;;;17.40;4.68;;;25.20;95.80;;;;;;5112696;28;20047;-71
2023/10/31 07:58:03;;;;;;;23.58;4.05;;;25.10;95.60;;;;;;5111713;28;20520;-70
2023/10/31 08:01:10;;;;;;;18.38;3.50;;;25.30;95.70;;;;;;5112428;28;20046;-69
2023/10/31 08:04:15;;;;;;;17.42;3.70;;;25.30;95.60;;;;;;5112837;28;20047;-72
2023/10/31 08:07:19;;;;;;;11.95;3.08;;;25.20;95.70;;;;;;5112311;28;20047;-69
2023/10/31 08:10:23;;;;;;;13.38;3.63;;;25.10;95.40;;;;;;5112231;28;20039;-70
2023/10/31 08:13:27;;;;;;;11.02;2.80;;;25.10;95.40;;;;;;5111496;28;20074;-72
2023/10/31 08:16:31;;;;;;;12.73;4.35;;;25.00;95.60;;;;;;5112102;28;20232;-70
2023/10/31 08:19:36;;;;;;;13.13;3.50;;;25.00;95.70;;;;;;5111894;28;20046;-73
2023/10/31 08:22:42;;;;;;;22.02;3.88;;;25.00;95.70;;;;;;5112057;28;20039;-73
2023/10/31 08:25:46;;;;;;;16.73;4.28;;;24.90;95.70;;;;;;5112099;28;20080;-73
2023/10/31 08:28:51;;;;;;;28.45;3.80;;;24.90;95.60;;;;;;5112192;28;20054;-72
2023/10/31 08:31:55;;;;;;;14.10;2.83;;;24.90;95.80;;;;;;5112040;28;20114;-74
2023/10/31 08:35:01;;;;;;;16.67;3.65;;;24.80;95.10;;;;;;5111834;28;20525;-75
2023/10/31 08:38:05;;;;;;;23.35;3.95;;;24.80;95.20;;;;;;5111672;28;20050;-75
2023/10/31 08:41:09;;;;;;;20.77;4.22;;;24.90;95.60;;;;;;5111912;28;20039;-76
2023/10/31 08:44:13;;;;;;;16.30;3.75;;;24.90;96.00;;;;;;5112131;28;20117;-72
2023/10/31 08:47:18;;;;;;;16.80;3.40;;;24.90;95.90;;;;;;5110741;28;20046;-73
2023/10/31 08:50:22;;;;;;;18.10;3.08;;;24.80;95.20;;;;;;5111498;28;20126;-75
2023/10/31 08:53:27;;;;;;;18.95;3.60;;;24.90;95.40;;;;;;5111508;28;20399;-73
2023/10/31 08:56:31;;;;;;;14.50;3.33;;;25.00;95.30;;;;;;5110675;28;20046;-73
2023/10/31 08:59:35;;;;;;;21.92;3.55;;;25.00;95.40;;;;;;5111537;28;20592;-75
2023/10/31 09:02:39;;;;;;;17.90;3.70;;;25.00;95.00;;;;;;5111714;28;20050;-77
2023/10/31 09:05:44;;;;;;;19.33;3.80;;;25.00;94.90;;;;;;5111280;28;20058;-75
2023/10/31 09:08:48;;;;;;;21.23;4.28;;;25.10;95.00;;;;;;5111295;28;20047;-72
2023/10/31 09:11:51;;;;;;;17.17;3.13;;;25.10;95.90;;;;;;5110570;28;20043;-72
2023/10/31 09:14:55;;;;;;;11.55;2.88;;;25.10;95.90;;;;;;5111225;28;20062;-72
2023/10/31 09:17:59;;;;;;;21.67;3.40;;;25.10;96.10;;;;;;5111468;28;20046;-71
2023/10/31 09:21:03;;;;;;;16.30;3.30;;;25.20;96.00;;;;;;5111492;28;20604;-73
2023/10/31 09:24:08;;;;;;;16.13;3.78;;;25.20;96.10;;;;;;5111345;28;20043;-72
2023/10/31 09:27:12;;;;;;;13.48;3.92;;;25.30;95.60;;;;;;5111433;28;20055;-72
2023/10/31 09:30:16;;;;;;;27.20;4.15;;;25.40;95.50;;;;;;5111046;28;20059;-72
2023/10/31 09:33:20;;;;;;;15.02;2.90;;;25.50;95.20;;;;;;5111318;28;20655;-72
2023/10/31 09:36:24;;;;;;;11.20;2.92;;;25.50;94.10;;;;;;5111132;28;20054;-73
2023/10/31 09:39:28;;;;;;;14.35;3.05;;;26.80;94.70;;;;;;5111348;28;20105;-74
2023/10/31 09:42:33;;;;;;;17.42;3.42;;;25.60;94.40;;;;;;5111047;28;20102;-72
2023/10/31 09:45:37;;;;;;;13.85;3.28;;;25.60;94.50;;;;;;5110965;28;20051;-78
2023/10/31 09:48:41;;;;;;;15.88;3.03;;;25.50;94.30;;;;;;5111029;28;20113;-77
2023/10/31 09:51:47;;;;;;;14.48;3.42;;;25.50;94.40;;;;;;5111014;28;20047;-75
2023/10/31 09:54:53;;;;;;;12.95;2.97;;;25.50;94.70;;;;;;5111125;28;20058;-75
2023/10/31 09:57:57;;;;;;;15.65;3.22;;;25.50;95.00;;;;;;5111134;28;20039;-75
2023/10/31 10:01:01;;;;;;;25.08;8.48;;;25.40;95.00;;;;;;5110975;28;20047;-73
2023/10/31 10:04:05;;;;;;;15.40;3.92;;;25.30;94.50;;;;;;5110964;28;20047;-76
2023/10/31 10:07:16;;;;;;;19.20;3.17;;;25.20;94.70;;;;;;5111789;28;20514;-74
2023/10/31 10:10:20;;;;;;;17.85;3.30;;;25.20;94.60;;;;;;5114654;28;20046;-73
2023/10/31 10:13:24;;;;;;;10.35;2.85;;;25.20;94.30;;;;;;5114702;28;20391;-73
2023/10/31 10:16:33;;;;;;;10.90;2.75;;;25.20;94.00;;;;;;5114466;28;20047;-71
2023/10/31 10:19:37;;;;;;;12.57;3.60;;;25.20;93.40;;;;;;5114816;28;20043;-71
2023/10/31 10:22:42;;;;;;;12.52;2.70;;;25.30;93.20;;;;;;5114338;28;20047;-73
2023/10/31 10:25:52;;;;;;;14.75;3.13;;;25.30;93.30;;;;;;5114663;28;20043;-73
2023/10/31 10:28:58;;;;;;;16.05;3.67;;;25.40;93.30;;;;;;5114368;28;20114;-73
2023/10/31 10:32:06;;;;;;;18.88;4.03;;;25.40;93.40;;;;;;5113357;28;20051;-72
2023/10/31 10:35:10;;;;;;;14.50;3.15;;;25.50;93.70;;;;;;5114456;28;20121;-76
2023/10/31 10:38:18;;;;;;;12.55;3.53;;;25.40;93.80;;;;;;5114348;28;20047;-74
2023/10/31 10:41:27;;;;;;;12.68;2.97;;;25.30;93.90;;;;;;5114094;28;20051;-75
2023/10/31 10:44:33;;;;;;;10.98;3.40;;;25.20;94.00;;;;;;5113534;28;20042;-76
2023/10/31 10:47:41;;;;;;;20.35;3.22;;;25.10;94.40;;;;;;5114009;28;20046;-74
2023/10/31 10:50:50;;;;;;;12.90;3.30;;;25.00;94.70;;;;;;5113834;28;20046;-75
2023/10/31 10:54:31;;;;;;;13.38;3.10;;;25.00;94.90;;;;;;5114302;28;20379;-73
2023/10/31 10:58:07;;;;;;;13.63;3.15;;;25.00;95.10;;;;;;5113825;28;20036;-75
2023/10/31 11:01:11;;;;;;;14.80;3.42;;;24.90;95.40;;;;;;5114008;28;20066;-72
2023/10/31 11:04:16;;;;;;;14.02;2.88;;;25.00;96.00;;;;;;5113762;28;20050;-72
2023/10/31 11:07:22;;;;;;;15.88;3.22;;;24.90;96.40;;;;;;5113769;28;20054;-74
2023/10/31 11:10:27;;;;;;;10.18;2.08;;;24.70;93.30;;;;;;5113748;28;20038;-72
2023/10/31 11:13:32;;;;;;;14.25;2.50;;;24.60;91.90;;;;;;5113301;28;20043;-73
2023/10/31 11:16:44;;;;;;;8.80;1.63;;;24.30;90.50;;;;;;5112904;28;20050;-73
2023/10/31 11:19:48;;;;;;;9.35;1.60;;;24.10;89.80;;;;;;5112741;28;20050;-75
2023/10/31 11:23:00;;;;;;;12.52;1.70;;;23.80;90.90;;;;;;5113245;28;20105;-77
2023/10/31 11:26:08;;;;;;;4.85;1.45;;;23.70;91.50;;;;;;5112590;28;20066;-76
2023/10/31 11:29:13;;;;;;;9.98;1.98;;;23.50;93.20;;;;;;5113016;28;20061;-75
2023/10/31 11:32:17;;;;;;;9.55;1.60;;;23.20;94.60;;;;;;5112815;28;20066;-73
2023/10/31 11:35:25;;;;;;;10.30;2.25;;;23.10;94.80;;;;;;5113191;28;20359;-75
2023/10/31 11:38:36;;;;;;;9.07;1.98;;;22.80;95.30;;;;;;5113187;28;20043;-71
2023/10/31 11:41:46;;;;;;;10.75;2.03;;;22.80;95.90;;;;;;5113206;28;20046;-73
2023/10/31 11:44:56;;;;;;;9.40;2.20;;;22.70;95.90;;;;;;5113406;28;20046;-75
2023/10/31 11:48:04;;;;;;;6.55;2.10;;;22.90;95.70;;;;;;5112851;28;20429;-76
2023/10/31 11:51:08;;;;;;;8.70;1.65;;;23.00;95.70;;;;;;5112733;28;20043;-73
2023/10/31 11:54:13;;;;;;;10.38;2.30;;;23.00;95.30;;;;;;5112700;28;20403;-73
2023/10/31 11:57:30;;;;;;;9.40;2.30;;;23.00;95.10;;;;;;5112485;28;20047;-75
2023/10/31 12:00:34;;;;;;;12.40;2.50;;;23.00;94.90;;;;;;5112571;28;20038;-73
2023/10/31 12:03:47;;;;;;;9.55;2.60;;;23.10;95.40;;;;;;5111776;28;20042;-75
2023/10/31 12:06:59;;;;;;;9.65;2.83;;;23.10;94.60;;;;;;5112272;28;20051;-73
2023/10/31 12:10:03;;;;;;;9.80;2.97;;;23.00;94.50;;;;;;5112592;28;20062;-75
2023/10/31 12:13:13;;;;;;;8.80;2.17;;;23.00;94.80;;;;;;5112240;28;20043;-74
2023/10/31 12:16:18;;;;;;;9.38;2.53;;;23.00;94.30;;;;;;5112300;28;20395;-74
2023/10/31 12:19:22;;;;;;;9.27;1.95;;;23.00;94.60;;;;;;5111480;28;20058;-73
2023/10/31 12:22:26;;;;;;;11.05;2.15;;;23.00;95.00;;;;;;5112418;28;20042;-75
2023/10/31 12:25:32;;;;;;;13.00;2.60;;;23.00;95.00;;;;;;5112600;28;20050;-72
2023/10/31 12:28:38;;;;;;;12.52;3.03;;;23.00;95.00;;;;;;5112186;28;20051;-73
2023/10/31 12:31:45;;;;;;;11.40;2.65;;;21.70;94.80;;;;;;5111003;28;20055;-74
2023/10/31 12:34:50;;;;;;;12.18;2.90;;;22.90;95.10;;;;;;5111949;28;20042;-75
2023/10/31 12:37:57;;;;;;;12.32;2.55;;;22.90;95.40;;;;;;5111976;28;20042;-74
2023/10/31 12:41:03;;;;;;;17.45;2.85;;;22.90;95.80;;;;;;5111446;28;20058;-73
2023/10/31 12:44:11;;;;;;;15.48;3.63;;;22.90;96.20;;;;;;5112421;28;20042;-73
2023/10/31 12:47:22;;;;;;;25.60;3.45;;;22.90;96.10;;;;;;5111968;28;20042;-73
2023/10/31 12:50:26;;;;;;;10.93;2.47;;;22.80;96.40;;;;;;5111942;28;20042;-74
2023/10/31 12:53:32;;;;;;;14.75;2.58;;;22.80;96.00;;;;;;5112570;28;20054;-74
2023/10/31 12:56:42;;;;;;;11.80;2.25;;;22.90;96.40;;;;;;5112013;28;20050;-74
2023/10/31 12:59:46;;;;;;;14.23;3.67;;;22.80;96.50;;;;;;5111914;28;20508;-74
2023/10/31 13:03:01;;;;;;;14.73;2.40;;;22.90;96.40;;;;;;5112155;28;20042;-74
2023/10/31 13:06:17;;;;;;;17.17;3.30;;;22.90;96.50;;;;;;5111014;28;20047;-73
2023/10/31 13:09:21;;;;;;;17.10;3.03;;;22.90;96.80;;;;;;5111186;28;20046;-73
2023/10/31 13:12:26;;;;;;;26.88;3.03;;;22.90;96.80;;;;;;5111515;28;20046;-73
2023/10/31 13:15:31;;;;;;;18.25;3.25;;;23.00;97.00;;;;;;5111485;28;20058;-73
2023/10/31 13:18:35;;;;;;;16.73;3.55;;;23.00;97.20;;;;;;5111390;28;20047;-75
2023/10/31 13:21:39;;;;;;;13.20;2.47;;;23.00;97.30;;;;;;5111305;28;20046;-73
2023/10/31 13:24:43;;;;;;;15.73;3.38;;;23.00;97.60;;;;;;5111222;28;20037;-75
2023/10/31 13:27:51;;;;;;;16.70;2.80;;;22.90;97.50;;;;;;5110981;28;20047;-75
2023/10/31 13:30:55;;;;;;;17.80;2.90;;;23.00;98.00;;;;;;5110973;28;20051;-74
2023/10/31 13:33:59;;;;;;;19.08;3.67;;;23.10;98.10;;;;;;5111100;28;20483;-73
2023/10/31 13:37:03;;;;;;;22.08;3.83;;;23.10;98.30;;;;;;5111171;28;20113;-73
2023/10/31 13:40:08;;;;;;;16.60;3.83;;;23.10;98.40;;;;;;5111325;28;20046;-73
2023/10/31 13:43:12;;;;;;;25.33;4.00;;;23.10;98.30;;;;;;5114016;28;20141;-78
2023/10/31 13:46:16;;;;;;;13.85;3.33;;;23.20;98.30;;;;;;5115238;28;20050;-75
2023/10/31 13:49:20;;;;;;;20.27;3.60;;;23.10;97.60;;;;;;5115538;28;20050;-75
2023/10/31 13:52:24;;;;;;;21.92;3.65;;;23.10;97.40;;;;;;5115436;28;20039;-73
2023/10/31 13:55:28;;;;;;;18.83;4.25;;;23.20;97.50;;;;;;5114907;28;20058;-74
2023/10/31 13:58:32;;;;;;;19.27;3.38;;;23.20;97.50;;;;;;5115150;28;20042;-74
2023/10/31 14:01:36;;;;;;;16.25;3.10;;;23.10;97.40;;;;;;5115277;28;20046;-75
2023/10/31 14:04:40;;;;;;;27.90;4.03;;;23.10;97.20;;;;;;5114890;28;20039;-75
2023/10/31 14:07:45;;;;;;;27.10;3.80;;;23.00;97.10;;;;;;5114440;28;20050;-74
2023/10/31 14:10:49;;;;;;;22.67;4.03;;;23.00;97.20;;;;;;5114142;28;20058;-74
2023/10/31 14:13:53;;;;;;;19.67;3.50;;;23.00;96.80;;;;;;5114846;28;20058;-74
2023/10/31 14:16:57;;;;;;;17.02;3.95;;;22.90;97.00;;;;;;5113941;28;20055;-75
2023/10/31 14:20:01;;;;;;;17.80;3.17;;;22.90;96.90;;;;;;5114582;28;20081;-73
2023/10/31 14:23:05;;;;;;;21.60;4.03;;;22.90;97.00;;;;;;5114447;28;20052;-74
2023/10/31 14:26:09;;;;;;;29.13;3.85;;;22.90;96.90;;;;;;5114414;28;20391;-73
2023/10/31 14:29:13;;;;;;;21.20;3.30;;;22.90;96.40;;;;;;5114510;28;20062;-74
2023/10/31 14:32:16;;;;;;;28.60;4.47;;;22.90;96.70;;;;;;5114448;28;20054;-73
2023/10/31 14:35:21;;;;;;;22.95;4.28;;;21.90;96.20;;;;;;5114232;28;20038;-76
2023/10/31 14:38:25;;;;;;;22.20;3.22;;;22.90;96.70;;;;;;5113399;28;20391;-76
2023/10/31 14:41:33;;;;;;;19.30;3.15;;;22.80;96.30;;;;;;5113949;28;20047;-74
2023/10/31 14:44:36;;;;;;;19.48;3.20;;;22.80;96.10;;;;;;5113360;28;20050;-73
2023/10/31 14:47:40;;;;;;;26.33;3.10;;;22.80;95.40;;;;;;5113996;28;20055;-74
2023/10/31 14:50:44;;;;;;;16.45;3.28;;;22.80;95.00;;;;;;5114165;28;20530;-73
2023/10/31 14:53:48;;;;;;;15.38;3.35;;;22.90;94.80;;;;;;5112489;28;20047;-74
2023/10/31 14:56:52;;;;;;;20.38;3.55;;;22.90;94.40;;;;;;5113732;28;20154;-75
2023/10/31 14:59:59;;;;;;;12.85;2.42;;;22.90;93.70;;;;;;5112614;28;20046;-75
2023/10/31 15:03:03;;;;;;;13.70;2.25;;;22.80;93.70;;;;;;5113429;28;20046;-75
2023/10/31 15:06:07;;;;;;;24.35;3.08;;;22.80;93.40;;;;;;5112845;28;20042;-74
2023/10/31 15:09:11;;;;;;;12.40;2.40;;;22.90;93.50;;;;;;5112967;28;20054;-76
2023/10/31 15:12:15;;;;;;;24.60;3.28;;;22.90;93.30;;;;;;5113577;28;20043;-76
2023/10/31 15:15:19;;;;;;;19.00;2.70;;;22.90;93.20;;;;;;5112553;28;20043;-73
2023/10/31 15:18:24;;;;;;;14.65;2.10;;;22.90;93.40;;;;;;5113067;28;20046;-73
2023/10/31 15:21:28;;;;;;;12.98;2.30;;;22.80;92.70;;;;;;5113172;28;20498;-74
2023/10/31 15:24:33;;;;;;;17.55;3.47;;;22.80;92.80;;;;;;5112683;28;20054;-74
2023/10/31 15:27:37;;;;;;;17.45;2.53;;;22.70;92.70;;;;;;5112094;28;20055;-76
2023/10/31 15:30:41;;;;;;;20.58;2.78;;;22.60;92.70;;;;;;5112956;28;20081;-77
2023/10/31 15:33:45;;;;;;;17.05;3.00;;;22.60;92.60;;;;;;5112514;28;20046;-72
2023/10/31 15:36:49;;;;;;;14.10;2.47;;;22.40;92.80;;;;;;5113312;28;20055;-75
2023/10/31 15:39:53;;;;;;;18.42;3.20;;;22.30;92.90;;;;;;5112885;28;20042;-77
2023/10/31 15:42:58;;;;;;;24.33;3.70;;;22.30;93.20;;;;;;5112863;28;20506;-73
2023/10/31 15:46:02;;;;;;;18.40;2.85;;;22.30;93.00;;;;;;5112803;28;20042;-73
2023/10/31 15:49:06;;;;;;;16.13;2.60;;;22.20;93.00;;;;;;5112921;28;20074;-75